Time;durP1;ratioP1;P1;durP2;ratioP2;P2;SDS_P1;SDS_P2;PMS_P1;PMS_P2;Temp;Humidity;BMP_temperature;BMP_pressure;BME280_temperature;BME280_humidity;BME280_pressure;Samples;Min_cycle;Max_cycle;Signal;HPM_P1;HPM_P2
2021/03/27 00:01:48;;;;;;;6.43;4.17;;;;;;;12.23;46.81;99786.28;5085571;28;20483;-60
2021/03/27 00:04:16;;;;;;;7.43;4.67;;;;;;;12.28;46.61;99785.81;5083502;28;20500;-59
2021/03/27 00:06:46;;;;;;;7.27;4.23;;;;;;;12.30;46.80;99774.91;5082335;28;20492;-59
2021/03/27 00:09:17;;;;;;;5.10;4.00;;;;;;;12.32;47.14;99773.75;5081635;28;20432;-60
2021/03/27 00:11:49;;;;;;;6.73;4.73;;;;;;;12.21;47.05;99769.53;5082001;28;20523;-59
2021/03/27 00:14:19;;;;;;;5.53;4.53;;;;;;;12.11;47.27;99755.44;5083938;28;20428;-59
2021/03/27 00:16:54;;;;;;;3.97;3.50;;;;;;;12.20;47.32;99759.84;5081265;28;20475;-59
2021/03/27 00:19:24;;;;;;;6.50;4.77;;;;;;;12.09;47.08;99753.94;5083811;28;20450;-60
2021/03/27 00:21:54;;;;;;;5.70;3.97;;;;;;;12.23;47.09;99748.75;5082460;28;20498;-59
2021/03/27 00:24:26;;;;;;;6.10;4.53;;;;;;;12.16;47.02;99745.06;5081410;28;20476;-59
2021/03/27 00:26:57;;;;;;;6.77;4.60;;;;;;;12.08;47.74;99744.19;5082073;28;20499;-59
2021/03/27 00:29:26;;;;;;;6.80;4.40;;;;;;;12.00;47.85;99732.47;5083561;28;20472;-58
2021/03/27 00:31:56;;;;;;;5.83;4.30;;;;;;;12.15;47.54;99735.34;5088276;28;20486;-60
2021/03/27 00:34:27;;;;;;;8.13;5.10;;;;;;;12.00;47.64;99728.94;5083400;28;20440;-60
2021/03/27 00:36:57;;;;;;;6.93;4.90;;;;;;;11.95;47.62;99717.88;5081322;28;20594;-59
2021/03/27 00:39:26;;;;;;;6.87;3.93;;;;;;;12.14;47.75;99724.81;5080262;28;20443;-60
2021/03/27 00:41:55;;;;;;;6.77;4.87;;;;;;;11.84;48.35;99727.03;5082064;28;20476;-60
2021/03/27 00:44:27;;;;;;;6.67;5.00;;;;;;;12.00;47.72;99718.22;5082015;28;20499;-60
2021/03/27 00:46:56;;;;;;;7.63;5.30;;;;;;;11.97;48.01;99708.66;5060704;28;21040;-60
2021/03/27 00:49:26;;;;;;;5.47;4.70;;;;;;;12.03;47.96;99712.53;5071298;28;20453;-59
2021/03/27 00:51:55;;;;;;;9.70;4.50;;;;;;;12.09;47.88;99708.38;5081579;28;20483;-60
2021/03/27 00:54:24;;;;;;;6.63;4.30;;;;;;;12.01;47.64;99712.72;5087329;28;20466;-59
2021/03/27 00:57:01;;;;;;;7.43;4.53;;;;;;;11.87;48.21;99700.75;5081598;28;20541;-60
2021/03/27 00:59:28;;;;;;;6.73;4.30;;;;;;;12.04;47.94;99695.47;5082188;28;20588;-60
2021/03/27 01:01:57;;;;;;;5.60;4.50;;;;;;;11.98;48.09;99696.13;5080117;28;20825;-59
2021/03/27 01:04:28;;;;;;;5.80;4.10;;;;;;;12.22;47.88;99698.00;5081741;28;20515;-60
2021/03/27 01:06:56;;;;;;;5.80;4.47;;;;;;;12.15;47.31;99695.16;5080217;28;20699;-59
2021/03/27 01:09:29;;;;;;;7.07;4.73;;;;;;;12.26;46.90;99690.50;5080714;28;20459;-59
2021/03/27 01:12:00;;;;;;;6.57;4.33;;;;;;;12.41;46.76;99692.34;5081633;28;20476;-59
2021/03/27 01:14:31;;;;;;;5.90;5.03;;;;;;;12.13;47.10;99683.75;5082220;28;21256;-59
2021/03/27 01:17:00;;;;;;;5.87;4.47;;;;;;;12.30;46.83;99698.03;5079946;28;20479;-59
2021/03/27 01:19:31;;;;;;;5.13;4.60;;;;;;;12.50;46.52;99693.19;5082105;28;20464;-59
2021/03/27 01:21:59;;;;;;;8.07;4.90;;;;;;;12.62;46.38;99693.72;5081439;28;20468;-60
2021/03/27 01:24:28;;;;;;;6.53;4.47;;;;;;;12.43;47.05;99698.38;5079104;28;20560;-59
2021/03/27 01:27:01;;;;;;;7.40;5.00;;;;;;;12.41;47.39;99689.66;5080405;28;21016;-60
2021/03/27 01:29:30;;;;;;;5.87;4.30;;;;;;;12.31;48.80;99713.09;5081496;28;20498;-59
2021/03/27 01:32:05;;;;;;;8.67;5.17;;;;;;;12.26;50.47;99714.63;5097835;28;20486;-59
2021/03/27 01:34:36;;;;;;;6.63;4.53;;;;;;;11.97;53.31;99713.19;5081968;28;20462;-60
2021/03/27 01:37:10;;;;;;;16.30;5.93;;;;;;;11.67;55.83;99702.00;5079755;28;20498;-59
2021/03/27 01:39:44;;;;;;;7.60;5.53;;;;;;;11.52;56.66;99712.47;5080141;28;20475;-59
2021/03/27 01:42:21;;;;;;;12.37;5.73;;;;;;;11.37;57.24;99700.69;5080404;28;20474;-59
2021/03/27 01:45:06;;;;;;;7.23;5.60;;;;;;;11.32;58.03;99701.19;5082098;28;20446;-59
2021/03/27 01:47:36;;;;;;;5.80;4.60;;;;;;;11.18;59.10;99715.97;5078978;28;20456;-62
2021/03/27 01:50:20;;;;;;;9.90;6.40;;;;;;;11.18;59.65;99705.28;5080963;28;20456;-63
2021/03/27 01:53:01;;;;;;;6.83;4.53;;;;;;;11.21;60.00;99704.13;5080939;28;20451;-58
2021/03/27 01:55:45;;;;;;;7.73;5.00;;;;;;;10.96;61.63;99722.69;5079873;28;20475;-58
2021/03/27 01:58:15;;;;;;;7.83;5.77;;;;;;;11.20;61.27;99705.97;5080354;28;20456;-62
2021/03/27 02:00:45;;;;;;;9.23;5.53;;;;;;;10.90;61.98;99717.94;5091536;28;20501;-61
2021/03/27 02:03:17;;;;;;;7.57;5.93;;;;;;;11.18;62.28;99720.47;5091383;28;20538;-62
2021/03/27 02:05:49;;;;;;;7.67;6.30;;;;;;;10.80;63.96;99725.22;5079631;28;20467;-61
2021/03/27 02:08:19;;;;;;;7.67;6.30;;;;;;;11.09;64.09;99768.59;5078644;28;20853;-61
2021/03/27 02:10:49;;;;;;;8.43;7.17;;;;;;;10.90;65.38;99800.84;5095069;28;20475;-62
2021/03/27 02:13:23;;;;;;;11.00;9.60;;;;;;;10.32;67.67;99797.63;5092152;28;20470;-62
2021/03/27 02:15:56;;;;;;;11.20;10.00;;;;;;;10.27;68.87;99809.72;5091527;28;20995;-62
2021/03/27 02:18:29;;;;;;;15.27;11.20;;;;;;;10.05;69.63;99833.19;5093614;28;20452;-62
2021/03/27 02:21:37;;;;;;;11.83;9.33;;;;;;;9.43;70.11;99830.13;5081169;28;20472;-62
2021/03/27 02:24:24;;;;;;;10.87;8.60;;;;;;;9.30;71.32;99830.44;5081467;28;20490;-61
2021/03/27 02:26:57;;;;;;;10.77;9.07;;;;;;;9.49;70.66;99864.25;5080263;28;20471;-62
2021/03/27 02:29:54;;;;;;;8.33;7.53;;;;;;;9.26;70.92;99865.56;5081897;28;20452;-61
2021/03/27 02:32:24;;;;;;;4.10;2.83;;;;;;;8.60;70.03;99859.88;5080506;28;20479;-62
2021/03/27 02:34:55;;;;;;;3.90;2.60;;;;;;;8.82;69.41;99873.97;5081285;28;20447;-61
2021/03/27 02:37:26;;;;;;;2.40;1.70;;;;;;;8.52;69.10;99874.88;5080346;28;20480;-60
2021/03/27 02:39:57;;;;;;;1.97;1.53;;;;;;;8.38;69.52;99876.91;5081151;28;20435;-58
2021/03/27 02:42:35;;;;;;;1.77;1.17;;;;;;;8.16;69.77;99879.78;5080754;28;20518;-60
2021/03/27 02:45:09;;;;;;;2.20;1.70;;;;;;;8.36;69.43;99884.19;5081011;28;20452;-59
2021/03/27 02:47:44;;;;;;;1.50;1.40;;;;;;;8.48;69.41;99887.63;5082277;28;20467;-59
2021/03/27 02:50:19;;;;;;;2.07;1.60;;;;;;;8.50;69.29;99891.00;5080552;28;20447;-61
2021/03/27 02:52:56;;;;;;;2.20;2.00;;;;;;;8.50;69.01;99887.50;5080998;28;20451;-62
2021/03/27 02:55:30;;;;;;;2.53;2.10;;;;;;;8.33;70.03;99904.94;5080350;28;20456;-61
2021/03/27 02:58:03;;;;;;;2.63;2.23;;;;;;;8.41;70.11;99911.28;5081163;28;20474;-62
2021/03/27 03:00:40;;;;;;;3.17;2.67;;;;;;;8.26;70.47;99912.63;5086125;28;20483;-62
2021/03/27 03:03:12;;;;;;;2.83;2.60;;;;;;;8.50;70.62;99919.47;5081280;28;20490;-59
2021/03/27 03:05:41;;;;;;;3.30;2.37;;;;;;;8.37;70.20;99938.34;5080178;28;20471;-58
2021/03/27 03:08:16;;;;;;;3.90;2.90;;;;;;;8.04;71.37;99950.94;5093998;28;20451;-59
2021/03/27 03:10:50;;;;;;;3.77;3.30;;;;;;;7.87;70.59;99945.22;5100043;28;21357;-59
2021/03/27 03:13:19;;;;;;;5.00;4.50;;;;;;;8.02;71.68;99966.16;5092366;28;20452;-58
2021/03/27 03:15:50;;;;;;;6.50;5.30;;;;;;;7.77;71.78;99960.28;5080302;28;20479;-59
2021/03/27 03:18:23;;;;;;;6.40;5.47;;;;;;;7.98;70.95;99962.91;5080548;28;20834;-58
2021/03/27 03:20:56;;;;;;;8.40;5.97;;;;;;;8.19;71.07;99965.56;5080613;28;20471;-58
2021/03/27 03:23:29;;;;;;;6.70;5.67;;;;;;;8.05;70.74;99969.41;5080713;28;21004;-59
2021/03/27 03:26:01;;;;;;;7.93;5.50;;;;;;;8.10;70.45;99975.19;5080273;28;20494;-59
2021/03/27 03:28:30;;;;;;;5.83;5.00;;;;;;;7.99;70.14;99977.94;5080740;28;20436;-60
2021/03/27 03:31:13;;;;;;;6.70;5.10;;;;;;;7.94;70.13;99990.78;5102113;28;20479;-60
2021/03/27 03:34:12;;;;;;;5.10;4.60;;;;;;;7.97;69.98;99995.84;5094934;28;20452;-60
2021/03/27 03:36:54;;;;;;;5.53;4.53;;;;;;;8.16;69.78;99999.59;5082502;28;20506;-60
2021/03/27 03:39:34;;;;;;;6.43;5.17;;;;;;;7.82;70.82;100008.63;5083955;28;20477;-59
2021/03/27 03:42:10;;;;;;;5.97;5.30;;;;;;;7.79;70.59;100002.72;5084219;28;20863;-60
2021/03/27 03:44:49;;;;;;;5.80;5.20;;;;;;;7.63;71.36;100004.00;5084911;28;21022;-60
2021/03/27 03:47:19;;;;;;;6.17;5.00;;;;;;;7.56;71.47;100009.97;5083153;28;20472;-60
2021/03/27 03:49:54;;;;;;;5.30;4.57;;;;;;;7.60;71.06;100014.91;5084574;28;20448;-61
2021/03/27 03:52:35;;;;;;;5.20;4.53;;;;;;;7.53;70.93;100011.94;5083871;28;20510;-60
2021/03/27 03:55:11;;;;;;;4.50;4.10;;;;;;;7.56;71.30;100016.13;5084103;28;20459;-60
2021/03/27 03:58:08;;;;;;;4.60;3.90;;;;;;;7.28;71.62;100021.06;5083651;28;20467;-60
2021/03/27 04:00:40;;;;;;;4.63;3.83;;;;;;;7.36;71.41;100031.09;5085344;28;20953;-59
2021/03/27 04:03:15;;;;;;;4.90;4.40;;;;;;;7.41;70.88;100041.31;5082867;28;20491;-60
2021/03/27 04:05:48;;;;;;;5.50;3.87;;;;;;;7.18;71.80;100046.69;5063278;28;20472;-59
2021/03/27 04:08:18;;;;;;;5.37;4.13;;;;;;;7.44;71.15;100043.75;5065410;28;20479;-60
2021/03/27 04:10:46;;;;;;;5.07;4.13;;;;;;;7.44;71.70;100041.91;5070773;28;20494;-60
2021/03/27 04:13:18;;;;;;;4.63;4.20;;;;;;;7.50;71.63;100049.41;5083631;28;20440;-59
2021/03/27 04:15:47;;;;;;;6.00;5.00;;;;;;;7.69;71.47;100047.88;5074796;28;20471;-60
2021/03/27 04:18:26;;;;;;;5.87;5.07;;;;;;;7.60;71.68;100051.31;5083005;28;20455;-60
2021/03/27 04:20:54;;;;;;;5.97;4.60;;;;;;;7.25;72.42;100044.41;5043283;28;20473;-59
2021/03/27 04:23:25;;;;;;;12.50;5.93;;;;;;;7.53;71.53;100049.16;5044165;28;20470;-60
2021/03/27 04:26:05;;;;;;;10.37;7.40;;;;;;;7.50;71.73;100044.09;5063049;28;20943;-60
2021/03/27 04:28:47;;;;;;;12.23;7.70;;;;;;;7.78;71.19;100044.47;5063202;28;20543;-60
2021/03/27 04:31:19;;;;;;;10.57;6.80;;;;;;;7.55;70.97;100043.69;5062968;28;20480;-60
2021/03/27 04:33:49;;;;;;;14.50;8.13;;;;;;;7.83;70.48;100047.59;5063198;28;20898;-59
2021/03/27 04:36:18;;;;;;;10.70;7.70;;;;;;;7.47;71.59;100035.53;5072697;28;20485;-59
2021/03/27 04:38:50;;;;;;;10.73;8.40;;;;;;;7.68;71.36;100052.34;5082525;28;20873;-59
2021/03/27 04:41:26;;;;;;;9.30;7.27;;;;;;;7.59;71.37;100057.63;5082970;28;20475;-59
2021/03/27 04:43:55;;;;;;;15.03;7.83;;;;;;;7.78;70.66;100059.56;5082864;28;20567;-60
2021/03/27 04:46:26;;;;;;;14.40;8.43;;;;;;;7.68;70.52;100073.66;5083029;28;20728;-59
2021/03/27 04:48:55;;;;;;;10.73;7.40;;;;;;;7.85;69.64;100058.13;5082889;28;20452;-58
2021/03/27 04:51:50;;;;;;;11.93;9.00;;;;;;;7.44;70.56;100068.53;5082484;28;20483;-59
2021/03/27 04:54:32;;;;;;;12.20;8.63;;;;;;;7.66;70.03;100077.41;5063268;28;20441;-58
2021/03/27 04:57:15;;;;;;;10.60;9.50;;;;;;;7.34;70.26;100079.06;5063819;28;20488;-60
2021/03/27 04:59:51;;;;;;;12.83;9.07;;;;;;;7.67;69.71;100081.75;5085258;28;20457;-59
2021/03/27 05:02:22;;;;;;;11.57;8.97;;;;;;;7.90;69.75;100067.41;5088186;28;20541;-59
2021/03/27 05:04:59;;;;;;;11.80;8.33;;;;;;;7.68;69.66;100086.94;5088320;28;21068;-59
2021/03/27 05:07:30;;;;;;;12.13;8.23;;;;;;;7.81;68.78;100086.81;5082734;28;20472;-60
2021/03/27 05:10:06;;;;;;;13.00;7.97;;;;;;;7.56;69.82;100087.13;5099988;28;20964;-60
2021/03/27 05:12:46;;;;;;;12.13;7.70;;;;;;;7.75;69.16;100083.81;5082554;28;20440;-59
2021/03/27 05:15:17;;;;;;;11.53;7.27;;;;;;;7.70;68.48;100089.50;5083000;28;20436;-59
2021/03/27 05:18:08;;;;;;;12.83;9.00;;;;;;;7.57;69.46;100086.13;5081565;28;20452;-60
2021/03/27 05:20:39;;;;;;;10.00;6.50;;;;;;;7.32;69.18;100090.78;5082243;28;20498;-59
2021/03/27 05:23:09;;;;;;;11.60;7.63;;;;;;;7.56;68.46;100079.97;5082920;28;20471;-59
2021/03/27 05:25:57;;;;;;;12.37;8.37;;;;;;;7.33;68.47;100088.00;5081285;28;20523;-60
2021/03/27 05:28:39;;;;;;;11.17;8.63;;;;;;;7.45;68.34;100099.47;5081778;28;20451;-59
2021/03/27 05:31:12;;;;;;;9.07;7.93;;;;;;;7.50;68.50;100109.75;5083349;28;20476;-59
2021/03/27 05:33:44;;;;;;;13.43;8.20;;;;;;;7.12;68.25;100111.00;5081674;28;20452;-59
2021/03/27 05:36:29;;;;;;;14.87;7.67;;;;;;;7.50;67.52;100120.41;5081570;28;20506;-59
2021/03/27 05:39:03;;;;;;;12.17;7.40;;;;;;;7.56;67.26;100135.84;5081653;28;20447;-59
2021/03/27 05:42:03;;;;;;;9.13;6.80;;;;;;;7.28;66.84;100119.44;5081178;28;20476;-58
2021/03/27 05:44:49;;;;;;;9.20;5.67;;;;;;;7.23;67.54;100155.34;5058320;28;20545;-59
2021/03/27 05:47:44;;;;;;;8.37;5.53;;;;;;;7.02;67.59;100150.75;5081116;28;20555;-59
2021/03/27 05:50:44;;;;;;;10.13;4.40;;;;;;;7.24;67.01;100163.22;5061335;28;20429;-59
2021/03/27 05:53:41;;;;;;;6.03;4.63;;;;;;;7.23;67.51;100171.31;5075344;28;20447;-59
2021/03/27 05:56:20;;;;;;;5.90;4.43;;;;;;;6.98;68.09;100163.44;5057822;28;21170;-59
2021/03/27 05:58:56;;;;;;;8.40;5.43;;;;;;;7.30;67.55;100164.53;5059460;28;20451;-58
2021/03/27 06:01:34;;;;;;;9.30;5.93;;;;;;;7.35;67.34;100162.34;5058073;28;20543;-59
2021/03/27 06:04:07;;;;;;;8.53;5.80;;;;;;;7.13;67.62;100165.88;5059429;28;20515;-60
2021/03/27 06:06:45;;;;;;;9.63;6.33;;;;;;;7.69;66.52;100170.28;5057849;28;21045;-58
2021/03/27 06:09:38;;;;;;;11.80;6.53;;;;;;;8.90;61.71;100175.34;5058311;28;20460;-58
2021/03/27 06:12:40;;;;;;;7.30;5.40;;;;;;;10.66;56.85;100170.41;5058132;28;20502;-60
2021/03/27 06:15:49;;;;;;;10.30;4.80;;;;;;;10.50;54.96;100169.19;4969944;28;20505;-59
2021/03/27 06:18:38;;;;;;;8.37;4.57;;;;;;;10.27;56.23;100179.28;4976581;28;20480;-59
2021/03/27 06:21:16;;;;;;;9.10;4.57;;;;;;;11.23;52.90;100175.75;4976457;28;20483;-60
2021/03/27 06:24:05;;;;;;;6.33;4.00;;;;;;;9.88;57.45;100176.56;4963348;28;20528;-60
2021/03/27 06:26:52;;;;;;;7.33;5.73;;;;;;;8.74;60.66;100181.16;4975415;28;20596;-59
2021/03/27 06:29:54;;;;;;;10.20;5.37;;;;;;;8.02;63.56;100181.81;4976289;28;20437;-59
2021/03/27 06:33:01;;;;;;;10.83;5.30;;;;;;;8.67;61.84;100194.16;4974172;28;20483;-59
2021/03/27 06:35:41;;;;;;;13.60;6.80;;;;;;;9.78;57.58;100203.25;4996201;28;20479;-59
2021/03/27 06:38:44;;;;;;;12.50;7.40;;;;;;;10.66;54.94;100198.00;4995727;28;20459;-60
2021/03/27 06:41:42;;;;;;;10.40;8.70;;;;;;;9.22;59.14;100201.94;4996133;28;20475;-60
2021/03/27 06:44:36;;;;;;;13.23;8.87;;;;;;;9.28;59.46;100205.03;4988252;28;20499;-59
2021/03/27 06:47:30;;;;;;;16.93;8.60;;;;;;;11.53;53.59;100188.03;4995945;28;20510;-59
2021/03/27 06:50:07;;;;;;;11.67;8.27;;;;;;;10.48;54.57;100186.34;5003007;28;20451;-59
2021/03/27 06:53:14;;;;;;;11.30;8.00;;;;;;;10.79;55.47;100196.88;5078017;28;20536;-63
2021/03/27 06:56:04;;;;;;;15.80;9.10;;;;;;;9.63;59.27;100198.44;5077080;28;20467;-60
2021/03/27 06:59:04;;;;;;;10.80;9.30;;;;;;;9.53;59.90;100204.59;5073673;28;20459;-60
2021/03/27 07:02:12;;;;;;;14.97;9.70;;;;;;;8.23;63.08;100200.53;5077259;28;20479;-59
2021/03/27 07:05:20;;;;;;;21.50;12.50;;;;;;;8.33;63.60;100203.25;5078452;28;20485;-59
2021/03/27 07:08:05;;;;;;;16.93;10.67;;;;;;;8.47;63.13;100205.63;5081528;28;20968;-60
2021/03/27 07:10:49;;;;;;;12.93;10.60;;;;;;;8.33;63.63;100198.75;5080744;28;20478;-60
2021/03/27 07:13:30;;;;;;;17.87;11.73;;;;;;;8.46;62.94;100215.47;5059774;28;20452;-60
2021/03/27 07:16:14;;;;;;;15.17;11.13;;;;;;;8.76;63.32;100216.53;5082919;28;20483;-60
2021/03/27 07:18:58;;;;;;;20.00;10.57;;;;;;;8.06;64.28;100208.06;5082319;28;20444;-60
2021/03/27 07:22:03;;;;;;;15.90;10.47;;;;;;;7.88;64.51;100204.22;5081134;28;20487;-60
2021/03/27 07:24:49;;;;;;;14.20;9.50;;;;;;;8.20;63.80;100216.75;5081659;28;20486;-60
2021/03/27 07:27:48;;;;;;;15.73;11.10;;;;;;;8.43;63.25;100217.53;5080725;28;20471;-60
2021/03/27 07:30:36;;;;;;;13.50;11.07;;;;;;;8.46;63.45;100211.97;5086478;28;20438;-60
2021/03/27 07:33:38;;;;;;;16.10;9.37;;;;;;;8.62;62.58;100223.00;5080793;28;20482;-59
2021/03/27 07:36:43;;;;;;;18.07;10.50;;;;;;;8.62;62.65;100225.69;5078238;28;21062;-60
2021/03/27 07:39:33;;;;;;;14.70;9.53;;;;;;;8.41;62.60;100227.44;5080739;28;20451;-59
2021/03/27 07:42:38;;;;;;;16.20;9.47;;;;;;;8.61;63.13;100233.81;5084286;28;20473;-60
2021/03/27 07:45:11;;;;;;;9.80;7.70;;;;;;;8.26;62.04;100246.41;5062007;28;20560;-60
2021/03/27 07:47:58;;;;;;;11.13;7.40;;;;;;;7.94;63.09;100241.03;5082999;28;20458;-60
2021/03/27 07:50:31;;;;;;;7.80;5.70;;;;;;;7.76;63.86;100248.69;5075900;28;20490;-59
2021/03/27 07:53:02;;;;;;;15.70;6.80;;;;;;;8.35;62.55;100246.59;5077117;28;20456;-60
2021/03/27 07:55:41;;;;;;;12.93;6.53;;;;;;;8.76;60.85;100255.66;5083338;28;20467;-59
2021/03/27 07:58:47;;;;;;;11.90;5.50;;;;;;;8.95;59.63;100253.13;5083686;28;20448;-60
2021/03/27 08:01:39;;;;;;;7.30;5.60;;;;;;;9.70;57.63;100244.94;5082652;28;20506;-59
2021/03/27 08:04:44;;;;;;;6.63;4.70;;;;;;;10.36;56.55;100244.44;5085449;28;20578;-59
2021/03/27 08:07:13;;;;;;;11.37;4.20;;;;;;;10.83;53.07;100252.59;5071600;28;20479;-60
2021/03/27 08:10:13;;;;;;;9.10;3.90;;;;;;;11.54;51.68;100250.47;5082660;28;20483;-59
2021/03/27 08:13:21;;;;;;;4.67;3.37;;;;;;;10.95;52.34;100247.91;5059645;28;21255;-59
2021/03/27 08:16:35;;;;;;;4.23;3.37;;;;;;;10.28;54.57;100279.00;5065744;28;20471;-60
2021/03/27 08:19:36;;;;;;;4.40;3.80;;;;;;;9.89;55.50;100273.53;5081437;28;20930;-59
2021/03/27 08:22:26;;;;;;;5.00;3.50;;;;;;;10.09;55.78;100280.63;5082195;28;20472;-60
2021/03/27 08:24:55;;;;;;;6.23;3.93;;;;;;;11.67;51.37;100280.44;5078897;28;20492;-60
2021/03/27 08:27:44;;;;;;;8.73;4.17;;;;;;;12.63;48.54;100285.41;5081467;28;20472;-60
2021/03/27 08:31:11;;;;;;;5.37;3.80;;;;;;;11.55;50.48;100282.44;5082352;28;20452;-59
2021/03/27 08:34:19;;;;;;;8.70;5.07;;;;;;;10.34;54.19;100291.81;5081969;28;20482;-60
2021/03/27 08:37:00;;;;;;;3.67;3.20;;;;;;;7.69;64.28;100353.88;5067499;28;20480;-59
2021/03/27 08:40:07;;;;;;;4.50;1.90;;;;;;;6.68;68.19;100396.94;5082560;28;20447;-59
2021/03/27 08:43:00;;;;;;;2.93;1.57;;;;;;;6.25;67.74;100430.09;5081580;28;20516;-60
2021/03/27 08:45:59;;;;;;;1.43;1.00;;;;;;;5.58;69.82;100431.13;5090188;28;20463;-58
2021/03/27 08:48:33;;;;;;;2.07;1.23;;;;;;;5.21;70.50;100438.91;5055598;28;20456;-59
2021/03/27 08:51:23;;;;;;;2.10;1.17;;;;;;;5.38;70.75;100448.38;5081837;28;20532;-61
2021/03/27 08:54:23;;;;;;;4.20;1.50;;;;;;;5.43;70.28;100443.63;5089009;28;20467;-61
2021/03/27 08:57:15;;;;;;;3.53;1.53;;;;;;;5.37;70.51;100444.03;5028248;28;20477;-59
2021/03/27 09:00:00;;;;;;;5.00;1.40;;;;;;;5.51;70.07;100451.06;5061214;28;20457;-59
2021/03/27 09:02:59;;;;;;;4.20;1.70;;;;;;;5.91;69.30;100442.19;5080410;28;20475;-59
2021/03/27 09:05:31;;;;;;;3.23;1.57;;;;;;;5.57;69.80;100445.34;5080531;28;20466;-59
2021/03/27 09:08:28;;;;;;;2.73;1.90;;;;;;;5.80;68.91;100440.28;5080254;28;20459;-59
2021/03/27 09:11:03;;;;;;;3.70;1.67;;;;;;;5.81;68.39;100431.34;5080836;28;20476;-58
2021/03/27 09:14:14;;;;;;;3.23;1.47;;;;;;;6.06;68.54;100437.66;5079801;28;20454;-60
2021/03/27 09:17:23;;;;;;;3.07;1.77;;;;;;;6.25;68.37;100435.41;5006693;28;20498;-59
2021/03/27 09:20:14;;;;;;;1.73;1.30;;;;;;;6.10;67.75;100449.75;5012875;28;20446;-60
2021/03/27 09:23:04;;;;;;;2.40;1.53;;;;;;;6.27;67.61;100457.41;5019979;28;20467;-58
2021/03/27 09:26:18;;;;;;;4.90;1.90;;;;;;;6.45;68.16;100470.34;5011842;28;20541;-59
2021/03/27 09:28:55;;;;;;;3.50;1.57;;;;;;;6.64;65.78;100480.50;4992957;28;20491;-59
2021/03/27 09:31:50;;;;;;;2.67;1.40;;;;;;;6.77;66.41;100483.94;5006352;28;21101;-60
2021/03/27 09:34:24;;;;;;;3.73;1.67;;;;;;;7.32;65.47;100489.72;5020180;28;20458;-58
2021/03/27 09:36:56;;;;;;;3.17;1.60;;;;;;;7.63;64.25;100495.41;5015657;28;20492;-59
2021/03/27 09:39:26;;;;;;;3.40;1.93;;;;;;;7.57;62.26;100506.50;5010205;28;20454;-60
2021/03/27 09:42:08;;;;;;;3.10;1.40;;;;;;;7.45;64.05;100500.31;5011626;28;21087;-59
2021/03/27 09:44:43;;;;;;;4.03;1.67;;;;;;;7.50;63.81;100501.66;5017778;28;20540;-59
2021/03/27 09:47:26;;;;;;;1.80;1.10;;;;;;;7.61;64.24;100515.97;5009750;28;20474;-60
2021/03/27 09:50:00;;;;;;;3.40;1.20;;;;;;;8.99;58.78;100499.06;5028739;28;20448;-60
2021/03/27 09:52:37;;;;;;;2.17;1.20;;;;;;;10.20;56.13;100511.28;5076421;28;20501;-59
2021/03/27 09:55:16;;;;;;;2.60;0.93;;;;;;;9.88;55.79;100520.22;5078808;28;20443;-60
2021/03/27 09:57:51;;;;;;;1.87;1.37;;;;;;;10.71;53.77;100515.78;5078569;28;20912;-60
2021/03/27 10:00:20;;;;;;;5.43;1.40;;;;;;;10.09;54.94;100534.44;5077988;28;20930;-59
2021/03/27 10:02:53;;;;;;;3.23;1.10;;;;;;;10.89;52.58;100518.66;5088189;28;21108;-60
2021/03/27 10:05:34;;;;;;;4.40;2.00;;;;;;;11.92;51.63;100533.44;5076844;28;20503;-58
2021/03/27 10:08:18;;;;;;;3.40;1.20;;;;;;;10.01;56.16;100528.03;5077313;28;20460;-58
2021/03/27 10:10:53;;;;;;;3.77;1.30;;;;;;;11.17;54.04;100533.09;5078618;28;20483;-59
2021/03/27 10:13:51;;;;;;;6.07;1.57;;;;;;;11.35;51.69;100529.75;5073976;28;20918;-58
2021/03/27 10:16:21;;;;;;;2.17;1.30;;;;;;;12.91;48.85;100529.50;5078783;28;20502;-59
2021/03/27 10:18:55;;;;;;;6.43;2.00;;;;;;;13.32;47.37;100540.75;5077533;28;21023;-60
2021/03/27 10:21:36;;;;;;;3.57;1.43;;;;;;;14.62;43.80;100534.78;5077277;28;20487;-60
2021/03/27 10:24:13;;;;;;;6.87;1.93;;;;;;;13.10;47.62;100540.13;5079599;28;20472;-59
2021/03/27 10:26:44;;;;;;;8.67;2.10;;;;;;;12.51;48.10;100542.22;5078377;28;20484;-61
2021/03/27 10:29:34;;;;;;;5.33;1.70;;;;;;;11.86;50.39;100545.56;5080824;28;20517;-61
2021/03/27 10:32:22;;;;;;;5.03;2.40;;;;;;;13.16;47.39;100552.13;5078112;28;20488;-60
2021/03/27 10:34:54;;;;;;;6.33;2.73;;;;;;;11.67;49.91;100549.09;5078977;28;20962;-60
2021/03/27 10:37:25;;;;;;;6.50;2.50;;;;;;;10.53;52.96;100551.16;5078698;28;20483;-60
2021/03/27 10:40:22;;;;;;;4.13;1.83;;;;;;;11.43;51.77;100545.97;5079024;28;20735;-60
2021/03/27 10:43:15;;;;;;;4.00;1.67;;;;;;;11.29;52.19;100560.59;5079171;28;20494;-60
2021/03/27 10:45:53;;;;;;;4.50;2.63;;;;;;;9.94;53.94;100563.25;5072499;28;20468;-60
2021/03/27 10:48:58;;;;;;;5.20;2.70;;;;;;;10.15;55.06;100557.09;5083496;28;20566;-60
2021/03/27 10:51:44;;;;;;;7.80;2.63;;;;;;;9.99;55.72;100563.72;5078880;28;20525;-60
2021/03/27 10:54:38;;;;;;;3.37;2.30;;;;;;;9.90;54.37;100569.84;5078447;28;20455;-59
2021/03/27 10:57:11;;;;;;;5.93;2.70;;;;;;;11.05;52.10;100555.59;5078209;28;20467;-60
2021/03/27 10:59:41;;;;;;;7.17;3.03;;;;;;;11.78;47.94;100557.97;5075518;28;20510;-62
2021/03/27 11:02:30;;;;;;;9.03;3.30;;;;;;;10.88;50.69;100543.72;5074708;28;20479;-62
2021/03/27 11:05:23;;;;;;;6.00;2.63;;;;;;;10.97;51.26;100564.31;5077601;28;20467;-62
2021/03/27 11:08:17;;;;;;;6.10;3.50;;;;;;;10.65;52.28;100543.06;5070555;28;20463;-61
2021/03/27 11:11:13;;;;;;;8.47;3.27;;;;;;;11.19;50.98;100571.25;5078910;28;20537;-62
2021/03/27 11:14:17;;;;;;;10.10;3.63;;;;;;;9.98;54.01;100570.06;5068967;28;20499;-62
2021/03/27 11:17:11;;;;;;;7.77;3.90;;;;;;;10.16;55.41;100580.19;5068182;28;20491;-62
2021/03/27 11:20:03;;;;;;;5.70;3.73;;;;;;;9.33;57.99;100590.53;5076994;28;20485;-61
2021/03/27 11:22:35;;;;;;;2.47;1.80;;;;;;;8.36;56.52;100598.13;5081332;28;20523;-60
2021/03/27 11:25:20;;;;;;;3.77;1.90;;;;;;;8.38;55.56;100604.19;5076632;28;20482;-61
2021/03/27 11:27:57;;;;;;;4.30;1.60;;;;;;;8.09;56.18;100617.06;5074852;28;21326;-61
2021/03/27 11:30:32;;;;;;;5.20;1.33;;;;;;;8.36;53.54;100597.28;5077079;28;20432;-61
2021/03/27 11:33:03;;;;;;;1.57;0.97;;;;;;;7.99;53.25;100630.22;5076043;28;20439;-62
2021/03/27 11:35:33;;;;;;;2.00;1.10;;;;;;;8.30;53.88;100631.41;5077113;28;20467;-62
2021/03/27 11:38:19;;;;;;;1.37;0.80;;;;;;;9.09;52.29;100641.38;5076578;28;20456;-63
2021/03/27 11:40:53;;;;;;;2.40;0.90;;;;;;;8.39;53.47;100656.50;5075691;28;20486;-62
2021/03/27 11:43:31;;;;;;;2.20;1.30;;;;;;;8.67;53.89;100665.94;5060992;28;20486;-60
2021/03/27 11:46:05;;;;;;;7.10;1.60;;;;;;;8.58;54.29;100682.63;5076109;28;20567;-61
2021/03/27 11:48:37;;;;;;;2.07;1.30;;;;;;;9.01;53.71;100676.66;5075603;28;21008;-61
2021/03/27 11:51:12;;;;;;;1.27;1.17;;;;;;;8.76;55.67;100706.19;5078289;28;20472;-62
2021/03/27 11:53:45;;;;;;;3.00;1.30;;;;;;;9.05;54.13;100695.94;5080986;28;20452;-63
2021/03/27 11:56:17;;;;;;;2.60;0.90;;;;;;;8.03;55.11;100705.38;5079797;28;20505;-63
2021/03/27 12:01:47;;;;;;;1.27;0.90;;;;;;;9.36;52.86;100723.72;5069576;28;20529;-62
2021/03/27 12:04:39;;;;;;;3.90;0.80;;;;;;;10.24;50.95;100722.00;5082313;28;20506;-63
2021/03/27 12:07:10;;;;;;;2.23;1.00;;;;;;;11.68;48.16;100729.38;5079842;28;20487;-62
2021/03/27 12:09:51;;;;;;;1.30;0.97;;;;;;;12.38;46.41;100732.09;5070284;28;20452;-63
2021/03/27 12:12:33;;;;;;;2.10;0.90;;;;;;;12.61;43.52;100730.81;5082232;28;20491;-62
2021/03/27 12:15:10;;;;;;;2.33;0.90;;;;;;;12.92;43.55;100732.47;5078867;28;20443;-62
2021/03/27 12:17:50;;;;;;;1.13;0.67;;;;;;;12.81;43.84;100722.72;5058898;28;20503;-63
2021/03/27 12:20:31;;;;;;;1.90;0.90;;;;;;;13.23;42.81;100721.50;5060083;28;21016;-62
2021/03/27 12:23:02;;;;;;;1.63;0.63;;;;;;;13.14;44.08;100729.47;5076557;28;20448;-61
2021/03/27 12:25:46;;;;;;;2.13;0.97;;;;;;;12.12;44.53;100721.06;5076411;28;20490;-62
2021/03/27 12:28:19;;;;;;;4.10;0.90;;;;;;;11.28;45.96;100720.34;5077071;28;20902;-63
2021/03/27 12:30:50;;;;;;;2.07;1.43;;;;;;;10.42;48.48;100730.34;5077113;28;20478;-62
2021/03/27 12:33:23;;;;;;;4.70;1.63;;;;;;;9.98;49.22;100737.47;5079006;28;20464;-62
2021/03/27 12:35:53;;;;;;;3.13;1.30;;;;;;;8.75;51.25;100755.13;5077927;28;20524;-63